sensor_id;sensor_type;location;lat;lon;timestamp;pressure;altitude;pressure_sealevel;temperature;humidity
70015;BME280;57358;51.094;6.760;2023-05-11T00:00:34;100862.78;;;11.84;100.00
70015;BME280;57358;51.094;6.760;2023-05-11T00:03:00;100945.31;;;12.30;100.00
70015;BME280;57358;51.094;6.760;2023-05-11T00:05:27;100952.38;;;12.30;100.00
70015;BME280;57358;51.094;6.760;2023-05-11T00:07:53;100950.06;;;12.24;100.00
70015;BME280;57358;51.094;6.760;2023-05-11T00:10:20;100862.69;;;11.53;100.00
70015;BME280;57358;51.094;6.760;2023-05-11T00:12:46;100949.72;;;12.14;100.00
70015;BME280;57358;51.094;6.760;2023-05-11T00:15:13;100950.25;;;12.05;100.00
70015;BME280;57358;51.094;6.760;2023-05-11T00:17:39;100948.66;;;11.85;100.00
70015;BME280;57358;51.094;6.760;2023-05-11T00:20:06;100882.50;;;11.43;100.00
70015;BME280;57358;51.094;6.760;2023-05-11T00:22:32;100944.91;;;11.73;100.00
70015;BME280;57358;51.094;6.760;2023-05-11T00:24:59;100887.38;;;11.33;100.00
70015;BME280;57358;51.094;6.760;2023-05-11T00:27:25;100951.66;;;11.61;100.00
70015;BME280;57358;51.094;6.760;2023-05-11T00:29:52;100927.94;;;11.45;100.00
70015;BME280;57358;51.094;6.760;2023-05-11T00:32:18;100885.53;;;11.18;100.00
70015;BME280;57358;51.094;6.760;2023-05-11T00:34:45;100968.34;;;11.60;100.00
70015;BME280;57358;51.094;6.760;2023-05-11T00:37:11;100963.94;;;11.61;100.00
70015;BME280;57358;51.094;6.760;2023-05-11T00:39:37;100963.78;;;11.64;100.00
70015;BME280;57358;51.094;6.760;2023-05-11T00:42:06;100905.00;;;11.31;100.00
70015;BME280;57358;51.094;6.760;2023-05-11T00:44:32;100929.16;;;11.55;100.00
70015;BME280;57358;51.094;6.760;2023-05-11T00:46:59;100862.06;;;11.15;100.00
70015;BME280;57358;51.094;6.760;2023-05-11T00:49:28;100979.44;;;11.83;100.00
70015;BME280;57358;51.094;6.760;2023-05-11T00:51:55;100974.09;;;11.84;100.00
70015;BME280;57358;51.094;6.760;2023-05-11T00:54:23;100928.00;;;11.61;100.00
70015;BME280;57358;51.094;6.760;2023-05-11T00:56:49;100956.94;;;11.77;100.00
70015;BME280;57358;51.094;6.760;2023-05-11T00:59:17;100980.97;;;11.87;100.00
70015;BME280;57358;51.094;6.760;2023-05-11T01:01:43;100994.97;;;11.87;100.00
70015;BME280;57358;51.094;6.760;2023-05-11T01:04:10;100968.06;;;11.82;100.00
70015;BME280;57358;51.094;6.760;2023-05-11T01:06:54;100955.56;;;11.70;100.00
70015;BME280;57358;51.094;6.760;2023-05-11T01:12:14;100958.19;;;11.70;100.00
70015;BME280;57358;51.094;6.760;2023-05-11T01:14:48;100967.53;;;11.75;100.00
70015;BME280;57358;51.094;6.760;2023-05-11T01:17:24;100891.25;;;11.26;100.00
70015;BME280;57358;51.094;6.760;2023-05-11T01:20:05;100958.25;;;11.68;100.00
70015;BME280;57358;51.094;6.760;2023-05-11T01:28:52;100958.84;;;11.57;100.00
70015;BME280;57358;51.094;6.760;2023-05-11T01:31:29;100934.81;;;11.48;100.00
70015;BME280;57358;51.094;6.760;2023-05-11T01:34:00;100952.81;;;11.55;100.00
70015;BME280;57358;51.094;6.760;2023-05-11T01:36:32;100885.28;;;11.07;100.00
70015;BME280;57358;51.094;6.760;2023-05-11T01:39:06;100871.69;;;10.98;100.00
70015;BME280;57358;51.094;6.760;2023-05-11T01:41:34;100961.16;;;11.46;100.00
70015;BME280;57358;51.094;6.760;2023-05-11T01:44:06;100905.09;;;11.12;100.00
70015;BME280;57358;51.094;6.760;2023-05-11T01:46:33;100948.28;;;11.42;100.00
70015;BME280;57358;51.094;6.760;2023-05-11T01:49:05;100944.34;;;11.33;100.00
70015;BME280;57358;51.094;6.760;2023-05-11T01:51:35;100966.13;;;11.35;100.00
70015;BME280;57358;51.094;6.760;2023-05-11T01:54:05;100960.97;;;11.33;100.00
70015;BME280;57358;51.094;6.760;2023-05-11T01:56:34;100968.06;;;11.31;100.00
70015;BME280;57358;51.094;6.760;2023-05-11T01:59:02;100841.31;;;10.58;100.00
70015;BME280;57358;51.094;6.760;2023-05-11T02:01:29;100888.59;;;10.75;100.00
70015;BME280;57358;51.094;6.760;2023-05-11T02:03:58;100970.31;;;11.22;100.00
70015;BME280;57358;51.094;6.760;2023-05-11T02:06:28;100974.78;;;11.20;100.00
70015;BME280;57358;51.094;6.760;2023-05-11T02:08:57;100921.38;;;10.84;100.00
70015;BME280;57358;51.094;6.760;2023-05-11T02:11:25;100931.44;;;10.76;100.00
70015;BME280;57358;51.094;6.760;2023-05-11T02:13:55;100967.00;;;11.01;100.00
70015;BME280;57358;51.094;6.760;2023-05-11T02:16:23;100948.41;;;10.86;100.00
70015;BME280;57358;51.094;6.760;2023-05-11T02:18:50;100816.00;;;10.03;100.00
70015;BME280;57358;51.094;6.760;2023-05-11T02:21:18;100985.91;;;11.07;100.00
70015;BME280;57358;51.094;6.760;2023-05-11T02:23:46;100984.75;;;11.13;100.00
70015;BME280;57358;51.094;6.760;2023-05-11T02:26:14;100966.81;;;11.04;100.00
70015;BME280;57358;51.094;6.760;2023-05-11T02:28:42;101002.53;;;11.25;100.00
70015;BME280;57358;51.094;6.760;2023-05-11T02:31:15;100999.91;;;11.25;100.00
70015;BME280;57358;51.094;6.760;2023-05-11T02:33:44;100999.44;;;11.17;100.00
70015;BME280;57358;51.094;6.760;2023-05-11T02:36:16;101000.59;;;11.11;100.00
70015;BME280;57358;51.094;6.760;2023-05-11T02:38:44;101005.22;;;11.06;100.00
70015;BME280;57358;51.094;6.760;2023-05-11T02:41:15;100960.22;;;10.77;100.00
70015;BME280;57358;51.094;6.760;2023-05-11T02:43:48;100935.91;;;10.56;100.00
70015;BME280;57358;51.094;6.760;2023-05-11T02:46:20;100988.22;;;10.96;100.00
70015;BME280;57358;51.094;6.760;2023-05-11T02:48:52;101005.50;;;11.00;100.00
70015;BME280;57358;51.094;6.760;2023-05-11T02:51:23;100979.75;;;10.72;100.00
70015;BME280;57358;51.094;6.760;2023-05-11T02:53:53;100909.69;;;10.37;100.00
70015;BME280;57358;51.094;6.760;2023-05-11T02:56:23;101005.88;;;10.92;100.00
70015;BME280;57358;51.094;6.760;2023-05-11T02:58:49;101017.41;;;10.90;100.00
70015;BME280;57358;51.094;6.760;2023-05-11T03:01:16;100995.66;;;10.69;100.00
70015;BME280;57358;51.094;6.760;2023-05-11T03:03:45;101017.75;;;10.82;100.00
70015;BME280;57358;51.094;6.760;2023-05-11T03:06:12;101019.00;;;10.75;100.00
70015;BME280;57358;51.094;6.760;2023-05-11T03:08:39;101014.88;;;10.69;100.00
70015;BME280;57358;51.094;6.760;2023-05-11T03:11:08;101021.44;;;10.61;100.00
70015;BME280;57358;51.094;6.760;2023-05-11T03:13:34;101010.50;;;10.51;100.00
70015;BME280;57358;51.094;6.760;2023-05-11T03:16:01;100960.69;;;10.11;100.00
70015;BME280;57358;51.094;6.760;2023-05-11T03:18:29;100933.72;;;9.90;100.00
70015;BME280;57358;51.094;6.760;2023-05-11T03:20:57;101004.41;;;10.31;100.00
70015;BME280;57358;51.094;6.760;2023-05-11T03:23:25;101002.81;;;10.27;100.00
70015;BME280;57358;51.094;6.760;2023-05-11T03:25:51;101003.09;;;10.21;100.00
70015;BME280;57358;51.094;6.760;2023-05-11T03:28:18;101003.44;;;10.13;100.00
70015;BME280;57358;51.094;6.760;2023-05-11T03:30:48;101006.22;;;10.10;100.00
70015;BME280;57358;51.094;6.760;2023-05-11T03:33:16;100949.56;;;9.68;100.00
70015;BME280;57358;51.094;6.760;2023-05-11T03:35:44;101004.16;;;10.17;100.00
70015;BME280;57358;51.094;6.760;2023-05-11T03:38:11;100896.69;;;9.58;100.00
70015;BME280;57358;51.094;6.760;2023-05-11T03:40:40;100999.22;;;10.30;100.00
70015;BME280;57358;51.094;6.760;2023-05-11T03:43:13;101012.00;;;10.37;100.00
70015;BME280;57358;51.094;6.760;2023-05-11T03:45:42;101004.84;;;10.41;100.00
70015;BME280;57358;51.094;6.760;2023-05-11T03:48:10;100931.44;;;10.02;100.00
70015;BME280;57358;51.094;6.760;2023-05-11T03:50:37;101012.28;;;10.50;100.00
70015;BME280;57358;51.094;6.760;2023-05-11T03:53:04;100979.59;;;10.38;100.00
70015;BME280;57358;51.094;6.760;2023-05-11T03:55:31;101012.69;;;10.60;100.00
70015;BME280;57358;51.094;6.760;2023-05-11T03:57:58;101015.19;;;10.63;100.00
70015;BME280;57358;51.094;6.760;2023-05-11T04:00:24;101009.69;;;10.68;100.00
70015;BME280;57358;51.094;6.760;2023-05-11T04:02:51;100952.66;;;10.35;100.00
70015;BME280;57358;51.094;6.760;2023-05-11T04:05:18;101009.41;;;10.74;100.00
70015;BME280;57358;51.094;6.760;2023-05-11T04:07:44;100944.25;;;10.27;100.00
70015;BME280;57358;51.094;6.760;2023-05-11T04:10:11;101002.25;;;10.77;100.00
70015;BME280;57358;51.094;6.760;2023-05-11T04:12:37;100998.84;;;10.75;100.00
70015;BME280;57358;51.094;6.760;2023-05-11T04:15:04;100828.06;;;9.69;100.00
70015;BME280;57358;51.094;6.760;2023-05-11T04:17:32;100971.34;;;10.65;100.00
70015;BME280;57358;51.094;6.760;2023-05-11T04:19:58;100979.44;;;10.78;100.00
70015;BME280;57358;51.094;6.760;2023-05-11T04:22:25;100991.97;;;10.90;100.00
70015;BME280;57358;51.094;6.760;2023-05-11T04:24:51;101011.63;;;11.01;100.00
70015;BME280;57358;51.094;6.760;2023-05-11T04:27:17;101005.22;;;11.06;100.00
70015;BME280;57358;51.094;6.760;2023-05-11T04:29:44;100930.53;;;10.58;100.00
70015;BME280;57358;51.094;6.760;2023-05-11T04:32:10;101014.44;;;11.15;100.00
70015;BME280;57358;51.094;6.760;2023-05-11T04:34:37;101016.81;;;11.20;100.00
70015;BME280;57358;51.094;6.760;2023-05-11T04:37:03;101013.41;;;11.17;100.00
70015;BME280;57358;51.094;6.760;2023-05-11T04:39:33;101018.53;;;11.21;100.00
70015;BME280;57358;51.094;6.760;2023-05-11T04:41:59;101012.19;;;11.25;100.00
70015;BME280;57358;51.094;6.760;2023-05-11T04:44:27;101002.78;;;11.21;100.00
70015;BME280;57358;51.094;6.760;2023-05-11T04:46:54;100970.59;;;10.98;100.00
70015;BME280;57358;51.094;6.760;2023-05-11T04:49:21;100826.91;;;10.13;100.00
70015;BME280;57358;51.094;6.760;2023-05-11T04:51:47;101004.31;;;11.25;100.00
70015;BME280;57358;51.094;6.760;2023-05-11T04:54:14;101009.41;;;11.28;100.00
70015;BME280;57358;51.094;6.760;2023-05-11T04:56:40;101013.56;;;11.32;100.00
70015;BME280;57358;51.094;6.760;2023-05-11T04:59:07;101017.38;;;11.44;100.00
70015;BME280;57358;51.094;6.760;2023-05-11T05:01:33;100955.63;;;11.17;100.00
70015;BME280;57358;51.094;6.760;2023-05-11T05:04:00;101017.38;;;11.61;100.00
70015;BME280;57358;51.094;6.760;2023-05-11T05:06:29;101015.25;;;11.68;100.00
70015;BME280;57358;51.094;6.760;2023-05-11T05:08:55;100970.00;;;11.45;100.00
70015;BME280;57358;51.094;6.760;2023-05-11T05:11:21;100981.47;;;11.60;100.00
70015;BME280;57358;51.094;6.760;2023-05-11T05:13:49;101010.59;;;11.90;100.00
70015;BME280;57358;51.094;6.760;2023-05-11T05:16:15;101008.59;;;11.95;100.00
70015;BME280;57358;51.094;6.760;2023-05-11T05:18:42;101023.97;;;12.03;100.00
70015;BME280;57358;51.094;6.760;2023-05-11T05:21:08;101007.00;;;11.93;100.00
70015;BME280;57358;51.094;6.760;2023-05-11T05:23:34;101030.41;;;11.97;100.00
70015;BME280;57358;51.094;6.760;2023-05-11T05:26:01;101018.28;;;11.95;100.00
70015;BME280;57358;51.094;6.760;2023-05-11T05:28:27;101027.19;;;12.08;100.00
70015;BME280;57358;51.094;6.760;2023-05-11T05:30:56;101029.59;;;12.13;100.00
70015;BME280;57358;51.094;6.760;2023-05-11T05:33:23;100998.00;;;11.97;100.00
70015;BME280;57358;51.094;6.760;2023-05-11T05:35:49;101032.13;;;12.14;100.00
70015;BME280;57358;51.094;6.760;2023-05-11T05:38:16;100941.13;;;11.61;100.00
70015;BME280;57358;51.094;6.760;2023-05-11T05:40:42;101043.34;;;12.18;100.00
70015;BME280;57358;51.094;6.760;2023-05-11T05:43:08;100992.88;;;11.94;100.00
70015;BME280;57358;51.094;6.760;2023-05-11T05:45:35;101044.81;;;12.24;100.00
70015;BME280;57358;51.094;6.760;2023-05-11T05:48:01;101040.06;;;12.30;100.00
70015;BME280;57358;51.094;6.760;2023-05-11T05:50:28;101008.38;;;12.16;100.00
70015;BME280;57358;51.094;6.760;2023-05-11T05:52:54;100974.91;;;12.02;100.00
70015;BME280;57358;51.094;6.760;2023-05-11T05:55:21;100966.44;;;11.97;100.00
70015;BME280;57358;51.094;6.760;2023-05-11T05:57:47;101049.06;;;12.42;100.00
70015;BME280;57358;51.094;6.760;2023-05-11T06:00:14;101046.78;;;12.52;100.00
70015;BME280;57358;51.094;6.760;2023-05-11T06:02:41;101043.03;;;12.40;100.00
70015;BME280;57358;51.094;6.760;2023-05-11T06:05:07;101040.91;;;12.47;100.00
70015;BME280;57358;51.094;6.760;2023-05-11T06:07:34;101040.69;;;12.51;100.00
70015;BME280;57358;51.094;6.760;2023-05-11T06:10:01;101043.91;;;12.56;100.00
70015;BME280;57358;51.094;6.760;2023-05-11T06:12:36;101031.41;;;12.44;100.00
70015;BME280;57358;51.094;6.760;2023-05-11T06:15:02;101038.47;;;12.60;100.00
70015;BME280;57358;51.094;6.760;2023-05-11T06:17:28;101002.78;;;12.38;100.00
70015;BME280;57358;51.094;6.760;2023-05-11T06:19:55;101045.78;;;12.70;100.00
70015;BME280;57358;51.094;6.760;2023-05-11T06:22:21;101050.00;;;12.89;100.00
70015;BME280;57358;51.094;6.760;2023-05-11T06:24:48;101018.59;;;12.70;100.00
70015;BME280;57358;51.094;6.760;2023-05-11T06:27:14;101049.16;;;13.04;100.00
70015;BME280;57358;51.094;6.760;2023-05-11T06:29:43;100967.97;;;12.65;100.00
70015;BME280;57358;51.094;6.760;2023-05-11T06:32:10;101034.50;;;13.14;100.00
70015;BME280;57358;51.094;6.760;2023-05-11T06:34:36;101027.59;;;13.28;100.00
70015;BME280;57358;51.094;6.760;2023-05-11T06:37:04;101040.47;;;13.48;100.00
70015;BME280;57358;51.094;6.760;2023-05-11T06:39:34;101038.63;;;13.65;100.00
70015;BME280;57358;51.094;6.760;2023-05-11T06:42:00;101032.16;;;13.70;100.00
70015;BME280;57358;51.094;6.760;2023-05-11T06:44:31;101027.63;;;13.72;100.00
70015;BME280;57358;51.094;6.760;2023-05-11T06:46:58;100963.47;;;13.43;100.00
70015;BME280;57358;51.094;6.760;2023-05-11T06:49:26;100973.06;;;13.73;100.00
70015;BME280;57358;51.094;6.760;2023-05-11T06:51:52;101025.94;;;14.14;100.00
70015;BME280;57358;51.094;6.760;2023-05-11T06:54:18;101023.69;;;14.23;100.00
70015;BME280;57358;51.094;6.760;2023-05-11T06:56:45;101026.31;;;14.23;100.00
70015;BME280;57358;51.094;6.760;2023-05-11T06:59:11;101018.66;;;14.47;100.00
70015;BME280;57358;51.094;6.760;2023-05-11T07:01:38;101010.88;;;14.72;100.00
70015;BME280;57358;51.094;6.760;2023-05-11T07:04:05;101020.84;;;15.09;100.00
70015;BME280;57358;51.094;6.760;2023-05-11T07:06:31;101021.66;;;15.36;100.00
70015;BME280;57358;51.094;6.760;2023-05-11T07:08:58;101016.00;;;15.55;100.00
70015;BME280;57358;51.094;6.760;2023-05-11T07:11:25;100937.88;;;15.24;100.00
70015;BME280;57358;51.094;6.760;2023-05-11T07:13:52;101010.28;;;15.87;100.00
70015;BME280;57358;51.094;6.760;2023-05-11T07:16:19;101000.88;;;15.83;100.00
70015;BME280;57358;51.094;6.760;2023-05-11T07:18:45;100994.94;;;15.92;100.00
70015;BME280;57358;51.094;6.760;2023-05-11T07:21:12;100990.72;;;15.90;100.00
70015;BME280;57358;51.094;6.760;2023-05-11T07:23:38;100999.28;;;15.93;100.00
70015;BME280;57358;51.094;6.760;2023-05-11T07:26:05;100961.41;;;15.80;100.00
70015;BME280;57358;51.094;6.760;2023-05-11T07:28:37;100979.59;;;15.72;100.00
70015;BME280;57358;51.094;6.760;2023-05-11T07:31:04;100791.66;;;14.45;100.00
70015;BME280;57358;51.094;6.760;2023-05-11T07:33:31;100964.91;;;15.15;100.00
70015;BME280;57358;51.094;6.760;2023-05-11T07:35:59;100945.06;;;15.22;100.00
70015;BME280;57358;51.094;6.760;2023-05-11T07:38:28;100958.88;;;15.00;100.00
70015;BME280;57358;51.094;6.760;2023-05-11T07:40:54;100972.66;;;15.31;100.00
70015;BME280;57358;51.094;6.760;2023-05-11T07:43:21;100844.91;;;14.52;100.00
70015;BME280;57358;51.094;6.760;2023-05-11T07:45:48;100949.38;;;15.23;100.00
70015;BME280;57358;51.094;6.760;2023-05-11T07:48:14;100933.09;;;15.16;100.00
70015;BME280;57358;51.094;6.760;2023-05-11T07:50:41;100961.56;;;15.26;100.00
70015;BME280;57358;51.094;6.760;2023-05-11T07:53:08;100961.56;;;15.51;100.00
70015;BME280;57358;51.094;6.760;2023-05-11T07:55:34;100938.53;;;15.28;100.00
70015;BME280;57358;51.094;6.760;2023-05-11T07:58:01;100962.16;;;15.04;100.00
70015;BME280;57358;51.094;6.760;2023-05-11T08:00:27;100963.59;;;15.61;100.00
70015;BME280;57358;51.094;6.760;2023-05-11T08:02:54;100895.84;;;15.71;100.00
70015;BME280;57358;51.094;6.760;2023-05-11T08:05:20;100950.56;;;16.46;100.00
70015;BME280;57358;51.094;6.760;2023-05-11T08:07:47;100902.00;;;16.45;97.33
70015;BME280;57358;51.094;6.760;2023-05-11T08:10:13;100936.72;;;17.02;95.64
70015;BME280;57358;51.094;6.760;2023-05-11T08:12:40;100918.63;;;16.71;90.75
70015;BME280;57358;51.094;6.760;2023-05-11T08:15:07;100847.41;;;16.31;90.04
70015;BME280;57358;51.094;6.760;2023-05-11T08:17:34;100871.63;;;16.73;89.55
70015;BME280;57358;51.094;6.760;2023-05-11T08:20:05;100855.81;;;16.85;87.53
70015;BME280;57358;51.094;6.760;2023-05-11T08:22:32;100864.94;;;17.39;85.23
70015;BME280;57358;51.094;6.760;2023-05-11T08:24:58;100801.69;;;16.41;83.98
70015;BME280;57358;51.094;6.760;2023-05-11T08:27:25;100858.06;;;16.78;84.67
70015;BME280;57358;51.094;6.760;2023-05-11T08:29:51;100795.41;;;15.69;86.66
70015;BME280;57358;51.094;6.760;2023-05-11T08:32:17;100870.47;;;16.18;89.98
70015;BME280;57358;51.094;6.760;2023-05-11T08:34:44;100881.25;;;16.39;90.28
70015;BME280;57358;51.094;6.760;2023-05-11T08:37:11;100879.16;;;16.07;89.40
70015;BME280;57358;51.094;6.760;2023-05-11T08:39:37;100881.31;;;16.02;90.81
70015;BME280;57358;51.094;6.760;2023-05-11T08:42:14;100854.06;;;15.63;90.87
70015;BME280;57358;51.094;6.760;2023-05-11T08:44:42;100874.63;;;15.60;91.37
70015;BME280;57358;51.094;6.760;2023-05-11T08:47:10;100815.84;;;15.18;92.04
70015;BME280;57358;51.094;6.760;2023-05-11T08:49:39;100868.91;;;15.40;90.70
70015;BME280;57358;51.094;6.760;2023-05-11T08:52:06;100855.28;;;15.21;90.25
70015;BME280;57358;51.094;6.760;2023-05-11T08:54:33;100867.66;;;15.20;90.73
70015;BME280;57358;51.094;6.760;2023-05-11T08:56:59;100862.66;;;15.54;91.21
70015;BME280;57358;51.094;6.760;2023-05-11T08:59:27;100822.91;;;15.04;92.56
70015;BME280;57358;51.094;6.760;2023-05-11T09:01:55;100850.56;;;15.63;94.47
70015;BME280;57358;51.094;6.760;2023-05-11T09:04:22;100862.88;;;15.51;91.17
70015;BME280;57358;51.094;6.760;2023-05-11T09:06:50;100873.47;;;15.38;92.01
70015;BME280;57358;51.094;6.760;2023-05-11T09:09:16;100880.44;;;15.52;92.03
70015;BME280;57358;51.094;6.760;2023-05-11T09:11:44;100853.63;;;15.82;90.26
70015;BME280;57358;51.094;6.760;2023-05-11T09:14:11;100802.41;;;15.33;88.64
70015;BME280;57358;51.094;6.760;2023-05-11T09:16:38;100850.66;;;15.87;88.03
70015;BME280;57358;51.094;6.760;2023-05-11T09:19:05;100859.19;;;16.27;87.29
70015;BME280;57358;51.094;6.760;2023-05-11T09:21:32;100841.69;;;16.49;85.29
70015;BME280;57358;51.094;6.760;2023-05-11T09:23:58;100829.31;;;16.85;82.73
70015;BME280;57358;51.094;6.760;2023-05-11T09:26:25;100802.16;;;16.70;81.34
70015;BME280;57358;51.094;6.760;2023-05-11T09:28:58;100795.91;;;16.11;83.10
70015;BME280;57358;51.094;6.760;2023-05-11T09:31:36;100806.91;;;15.94;83.53
70015;BME280;57358;51.094;6.760;2023-05-11T09:34:21;100818.44;;;16.17;84.21
70015;BME280;57358;51.094;6.760;2023-05-11T09:36:55;100825.06;;;16.47;84.64
70015;BME280;57358;51.094;6.760;2023-05-11T09:39:33;100786.53;;;16.43;82.21
70015;BME280;57358;51.094;6.760;2023-05-11T09:42:17;100773.69;;;16.61;79.74
70015;BME280;57358;51.094;6.760;2023-05-11T09:44:44;100785.50;;;16.57;80.56
70015;BME280;57358;51.094;6.760;2023-05-11T09:47:14;100773.38;;;16.30;80.32
70015;BME280;57358;51.094;6.760;2023-05-11T09:49:44;100654.47;;;14.56;82.37
70015;BME280;57358;51.094;6.760;2023-05-11T09:52:16;100804.63;;;15.77;85.41
70015;BME280;57358;51.094;6.760;2023-05-11T09:54:44;100748.19;;;15.39;84.54
70015;BME280;57358;51.094;6.760;2023-05-11T09:57:30;100807.78;;;15.32;87.36
70015;BME280;57358;51.094;6.760;2023-05-11T09:59:58;100776.94;;;14.94;88.74
70015;BME280;57358;51.094;6.760;2023-05-11T10:02:26;100834.94;;;15.47;90.57
70015;BME280;57358;51.094;6.760;2023-05-11T10:04:55;100832.41;;;15.45;90.40
70015;BME280;57358;51.094;6.760;2023-05-11T10:09:51;100790.88;;;14.83;90.65
70015;BME280;57358;51.094;6.760;2023-05-11T10:12:20;100840.06;;;15.11;90.54
70015;BME280;57358;51.094;6.760;2023-05-11T10:14:50;100733.47;;;14.07;91.51
70015;BME280;57358;51.094;6.760;2023-05-11T10:17:17;100755.56;;;14.06;93.21
70015;BME280;57358;51.094;6.760;2023-05-11T10:19:46;100807.13;;;14.24;94.66
70015;BME280;57358;51.094;6.760;2023-05-11T10:22:12;100858.03;;;14.53;96.38
70015;BME280;57358;51.094;6.760;2023-05-11T10:24:39;100849.06;;;14.56;96.85
70015;BME280;57358;51.094;6.760;2023-05-11T10:27:06;100852.19;;;14.75;97.15
70015;BME280;57358;51.094;6.760;2023-05-11T10:29:33;100857.38;;;15.03;95.77
70015;BME280;57358;51.094;6.760;2023-05-11T10:32:00;100825.44;;;14.93;94.09
70015;BME280;57358;51.094;6.760;2023-05-11T10:34:27;100867.19;;;15.65;92.54
70015;BME280;57358;51.094;6.760;2023-05-11T10:36:54;100844.16;;;15.41;89.02
70015;BME280;57358;51.094;6.760;2023-05-11T10:39:50;100788.56;;;15.04;89.99
70015;BME280;57358;51.094;6.760;2023-05-11T10:46:29;100857.50;;;16.26;89.93
70015;BME280;57358;51.094;6.760;2023-05-11T10:49:41;100821.47;;;16.48;85.77
70015;BME280;57358;51.094;6.760;2023-05-11T10:56:08;100811.16;;;17.14;81.06
70015;BME280;57358;51.094;6.760;2023-05-11T11:02:30;100598.94;;;16.37;75.72
70015;BME280;57358;51.094;6.760;2023-05-11T11:05:34;100700.13;;;17.21;74.07
70015;BME280;57358;51.094;6.760;2023-05-11T11:08:55;100663.94;;;17.20;72.55
70015;BME280;57358;51.094;6.760;2023-05-11T11:11:50;100725.25;;;17.60;73.79
70015;BME280;57358;51.094;6.760;2023-05-11T11:15:05;100663.72;;;17.23;72.44
70015;BME280;57358;51.094;6.760;2023-05-11T11:18:35;100582.56;;;16.65;72.53
70015;BME280;57358;51.094;6.760;2023-05-11T11:21:40;100676.88;;;17.57;72.33
70015;BME280;57358;51.094;6.760;2023-05-11T11:30:37;100593.44;;;17.49;69.77
70015;BME280;57358;51.094;6.760;2023-05-11T11:38:14;100605.94;;;17.91;68.61
70015;BME280;57358;51.094;6.760;2023-05-11T11:40:45;100630.09;;;18.40;68.37
70015;BME280;57358;51.094;6.760;2023-05-11T11:43:20;100575.75;;;18.53;66.38
70015;BME280;57358;51.094;6.760;2023-05-11T11:45:58;100623.44;;;18.45;68.93
70015;BME280;57358;51.094;6.760;2023-05-11T11:48:32;100604.38;;;19.21;66.63
70015;BME280;57358;51.094;6.760;2023-05-11T11:51:07;100575.69;;;18.74;66.25
70015;BME280;57358;51.094;6.760;2023-05-11T12:01:12;100485.50;;;17.71;66.71
70015;BME280;57358;51.094;6.760;2023-05-11T12:03:40;100540.75;;;17.66;67.73
70015;BME280;57358;51.094;6.760;2023-05-11T12:06:09;100540.31;;;18.03;67.89
70015;BME280;57358;51.094;6.760;2023-05-11T12:08:36;100524.75;;;18.69;65.69
70015;BME280;57358;51.094;6.760;2023-05-11T12:11:04;100540.56;;;18.21;68.01
70015;BME280;57358;51.094;6.760;2023-05-11T12:13:32;100597.69;;;18.15;69.94
70015;BME280;57358;51.094;6.760;2023-05-11T12:16:17;100561.50;;;17.93;69.79
70015;BME280;57358;51.094;6.760;2023-05-11T12:18:52;100581.56;;;17.86;71.33
70015;BME280;57358;51.094;6.760;2023-05-11T12:21:20;100663.59;;;18.52;72.53
70015;BME280;57358;51.094;6.760;2023-05-11T12:24:00;100619.53;;;18.49;70.53
70015;BME280;57358;51.094;6.760;2023-05-11T12:26:28;100552.19;;;18.29;68.70
70015;BME280;57358;51.094;6.760;2023-05-11T12:29:12;100578.47;;;17.81;70.12
70015;BME280;57358;51.094;6.760;2023-05-11T12:31:43;100560.50;;;17.31;71.34
70015;BME280;57358;51.094;6.760;2023-05-11T12:34:19;100585.25;;;17.52;71.77
70015;BME280;57358;51.094;6.760;2023-05-11T12:36:52;100528.78;;;16.97;72.00
70015;BME280;57358;51.094;6.760;2023-05-11T12:41:47;100601.03;;;17.75;72.37
70015;BME280;57358;51.094;6.760;2023-05-11T12:44:15;100582.28;;;17.88;71.73
70015;BME280;57358;51.094;6.760;2023-05-11T12:46:44;100401.66;;;16.63;71.44
70015;BME280;57358;51.094;6.760;2023-05-11T12:49:11;100527.47;;;17.24;71.78
70015;BME280;57358;51.094;6.760;2023-05-11T12:51:48;100581.19;;;17.37;72.80
70015;BME280;57358;51.094;6.760;2023-05-11T12:54:50;100612.44;;;17.98;71.03
70015;BME280;57358;51.094;6.760;2023-05-11T12:57:29;100575.41;;;17.64;71.43
70015;BME280;57358;51.094;6.760;2023-05-11T13:00:06;100601.81;;;18.29;70.78
70015;BME280;57358;51.094;6.760;2023-05-11T13:02:33;100591.00;;;18.51;69.85
70015;BME280;57358;51.094;6.760;2023-05-11T13:05:09;100552.13;;;18.91;66.89
70015;BME280;57358;51.094;6.760;2023-05-11T13:07:37;100530.00;;;18.50;67.42
70015;BME280;57358;51.094;6.760;2023-05-11T13:10:04;100551.72;;;18.55;67.33
70015;BME280;57358;51.094;6.760;2023-05-11T13:12:31;100542.59;;;18.38;67.83
70015;BME280;57358;51.094;6.760;2023-05-11T13:15:08;100570.94;;;17.65;70.12
70015;BME280;57358;51.094;6.760;2023-05-11T13:17:37;100585.25;;;17.73;69.83
70015;BME280;57358;51.094;6.760;2023-05-11T13:20:28;100625.44;;;18.22;69.95
70015;BME280;57358;51.094;6.760;2023-05-11T13:23:02;100607.88;;;18.71;68.77
70015;BME280;57358;51.094;6.760;2023-05-11T13:25:31;100509.69;;;18.29;66.80
70015;BME280;57358;51.094;6.760;2023-05-11T13:27:57;100504.25;;;18.00;67.17
70015;BME280;57358;51.094;6.760;2023-05-11T13:30:24;100503.53;;;18.29;65.87
70015;BME280;57358;51.094;6.760;2023-05-11T13:32:50;100528.34;;;17.87;66.12
70015;BME280;57358;51.094;6.760;2023-05-11T13:35:16;100549.63;;;18.18;66.98
70015;BME280;57358;51.094;6.760;2023-05-11T13:37:44;100587.03;;;18.77;66.91
70015;BME280;57358;51.094;6.760;2023-05-11T13:40:12;100426.97;;;18.03;65.06